createdAt,value
2023-04-16T00:01:29.344Z,101198.81
2023-04-16T00:03:57.950Z,101202.19
2023-04-16T00:06:27.791Z,101201.34
2023-04-16T00:08:57.548Z,101205.84
2023-04-16T00:11:26.088Z,101210.50
2023-04-16T00:13:54.454Z,101200.91
2023-04-16T00:16:22.901Z,101186.13
2023-04-16T00:18:51.375Z,101205.84
2023-04-16T00:21:19.726Z,101201.63
2023-04-16T00:23:48.186Z,101199.22
2023-04-16T00:26:17.950Z,101201.91
2023-04-16T00:28:47.825Z,101199.94
2023-04-16T00:31:16.390Z,101197.66
2023-04-16T00:33:44.906Z,101195.69
2023-04-16T00:36:13.459Z,101192.16
2023-04-16T00:38:41.933Z,101186.81
2023-04-16T00:41:10.464Z,101182.44
2023-04-16T00:43:40.314Z,101178.78
2023-04-16T00:46:09.867Z,101179.06
2023-04-16T00:48:40.116Z,101179.06
2023-04-16T00:51:09.844Z,101188.09
2023-04-16T00:53:38.545Z,101183.03
2023-04-16T00:56:08.682Z,101184.59
2023-04-16T00:58:37.510Z,101175.84
2023-04-16T01:01:07.807Z,101180.34
2023-04-16T01:03:39.832Z,101085.53
2023-04-16T01:06:08.757Z,101177.66
2023-04-16T01:08:37.194Z,101190.06
2023-04-16T01:11:06.146Z,101164.97
2023-04-16T01:13:35.154Z,101201.03
2023-04-16T01:16:03.624Z,101183.44
2023-04-16T01:18:33.732Z,101192.03
2023-04-16T01:21:04.108Z,101178.53
2023-04-16T01:23:32.723Z,101193.00
2023-04-16T01:26:01.338Z,101150.44
2023-04-16T01:28:29.964Z,101174.84
2023-04-16T01:30:58.528Z,101175.13
2023-04-16T01:33:45.508Z,101186.81
2023-04-16T01:36:15.777Z,101189.50
2023-04-16T01:38:44.259Z,101204.31
2023-04-16T01:41:12.666Z,101201.63
2023-04-16T01:43:42.875Z,101204.16
2023-04-16T01:46:16.593Z,101211.34
2023-04-16T01:48:45.156Z,101204.72
2023-04-16T01:51:13.664Z,101205.56
2023-04-16T01:53:43.519Z,101201.75
2023-04-16T01:56:12.006Z,101198.38
2023-04-16T01:58:41.530Z,101194.16
2023-04-16T02:01:10.484Z,101178.38
2023-04-16T02:03:39.846Z,101205.56
2023-04-16T02:06:08.541Z,101207.41
2023-04-16T02:08:37.566Z,101216.56
2023-04-16T02:11:07.589Z,101213.56
2023-04-16T02:13:36.505Z,101206.81
2023-04-16T02:16:05.133Z,101215.38
2023-04-16T02:18:54.536Z,101202.69
2023-04-16T02:21:25.053Z,101199.03
2023-04-16T02:23:53.553Z,101200.72
2023-04-16T02:26:30.465Z,101202.81
2023-04-16T02:29:04.724Z,101205.22
2023-04-16T02:31:41.660Z,101196.91
2023-04-16T02:34:11.779Z,101192.94
2023-04-16T02:36:40.399Z,101183.47
2023-04-16T02:39:09.258Z,101188.38
2023-04-16T02:41:39.803Z,101192.63
2023-04-16T02:44:08.574Z,101175.72
2023-04-16T02:46:36.920Z,101184.47
2023-04-16T02:49:05.437Z,101185.16
2023-04-16T02:51:34.303Z,101182.38
2023-04-16T02:54:03.204Z,101180.09
2023-04-16T02:56:32.561Z,101191.50
2023-04-16T02:59:02.418Z,101187.66
2023-04-16T03:01:31.326Z,101188.13
2023-04-16T03:04:00.281Z,101189.69
2023-04-16T03:06:28.842Z,101181.91
2023-04-16T03:08:58.437Z,101184.72
2023-04-16T03:11:26.871Z,101189.09
2023-04-16T03:13:55.318Z,101182.06
2023-04-16T03:16:25.312Z,101182.75
2023-04-16T03:18:53.765Z,101168.81
2023-04-16T03:21:22.189Z,101176.97
2023-04-16T03:23:50.694Z,101169.94
2023-04-16T03:26:19.148Z,101173.59
2023-04-16T03:28:47.840Z,101167.41
2023-04-16T03:31:16.600Z,101162.59
2023-04-16T03:33:47.216Z,101155.28
2023-04-16T03:36:15.989Z,101146.53
2023-04-16T03:38:44.507Z,101162.03
2023-04-16T03:41:13.039Z,101153.03
2023-04-16T03:43:41.450Z,101135.25
2023-04-16T03:46:11.981Z,101152.50
2023-04-16T03:48:40.370Z,101151.38
2023-04-16T03:51:10.662Z,101142.38
2023-04-16T03:53:40.503Z,101153.34
2023-04-16T03:56:08.956Z,101146.00
2023-04-16T03:58:37.423Z,101153.56
2023-04-16T04:01:05.852Z,101154.56
2023-04-16T04:03:34.540Z,101153.56
2023-04-16T04:06:07.855Z,101142.31
2023-04-16T04:08:37.729Z,101136.38
2023-04-16T04:11:07.336Z,101133.97
2023-04-16T04:13:36.940Z,101133.66
2023-04-16T04:16:06.354Z,101128.75
2023-04-16T04:18:35.147Z,101136.31
2023-04-16T04:21:07.060Z,101135.94
2023-04-16T04:23:37.485Z,101126.78
2023-04-16T04:26:07.773Z,101141.28
2023-04-16T04:28:37.261Z,101141.16
2023-04-16T04:31:06.439Z,101139.59
2023-04-16T04:33:34.936Z,101138.59
2023-04-16T04:36:04.075Z,101134.25
2023-04-16T04:38:34.371Z,101145.66
2023-04-16T04:41:04.299Z,101152.56
2023-04-16T04:43:36.464Z,101149.63
2023-04-16T04:46:05.073Z,101157.63
2023-04-16T04:48:34.077Z,101159.47
2023-04-16T04:51:05.352Z,101163.25
2023-04-16T04:53:34.338Z,101165.66
2023-04-16T04:56:12.224Z,101172.44
2023-04-16T04:58:42.029Z,101168.91
2023-04-16T05:01:10.684Z,101162.59
2023-04-16T05:03:39.406Z,101158.66
2023-04-16T05:06:08.558Z,101167.53
2023-04-16T05:08:37.063Z,101168.63
2023-04-16T05:11:06.824Z,101166.25
2023-04-16T05:13:35.280Z,101174.78
2023-04-16T05:16:03.619Z,101170.53
2023-04-16T05:18:32.950Z,101171.34
2023-04-16T05:21:01.303Z,101170.50
2023-04-16T05:23:29.784Z,101170.22
2023-04-16T05:25:58.244Z,101167.88
2023-04-16T05:28:27.968Z,101168.28
2023-04-16T05:30:56.487Z,101160.44
2023-04-16T05:33:24.925Z,101166.09
2023-04-16T05:35:53.257Z,101136.19
2023-04-16T05:38:21.728Z,101177.81
2023-04-16T05:40:50.081Z,101177.28
2023-04-16T05:43:18.675Z,101184.06
2023-04-16T05:45:48.450Z,101178.31
2023-04-16T05:48:16.971Z,101178.34
2023-04-16T05:50:45.269Z,101188.47
2023-04-16T05:53:14.642Z,101188.91
2023-04-16T05:55:42.968Z,101190.06
2023-04-16T05:58:11.376Z,101177.09
2023-04-16T06:00:40.368Z,101181.41
2023-04-16T06:03:10.365Z,101187.22
2023-04-16T06:05:39.015Z,101179.34
2023-04-16T06:08:07.449Z,101172.09
2023-04-16T06:10:35.801Z,101178.97
2023-04-16T06:13:04.476Z,101181.91
2023-04-16T06:15:32.925Z,101141.59
2023-04-16T06:18:01.413Z,101163.56
2023-04-16T06:20:31.476Z,101165.25
2023-04-16T06:22:59.838Z,101177.94
2023-04-16T06:25:28.309Z,101168.97
2023-04-16T06:27:56.669Z,101177.19
2023-04-16T06:30:25.193Z,101178.63
2023-04-16T06:32:54.287Z,101179.03
2023-04-16T06:35:22.753Z,101181.31
2023-04-16T06:37:52.619Z,101193.06
2023-04-16T06:40:21.010Z,101177.47
2023-04-16T06:42:49.406Z,101181.19
2023-04-16T06:45:17.843Z,101193.19
2023-04-16T06:47:46.297Z,101171.25
2023-04-16T06:50:14.749Z,101172.94
2023-04-16T06:52:43.183Z,101173.34
2023-04-16T06:55:13.108Z,101174.19
2023-04-16T06:57:42.009Z,101168.41
2023-04-16T07:00:12.439Z,101163.78
2023-04-16T07:02:40.958Z,101171.69
2023-04-16T07:05:10.204Z,101163.19
2023-04-16T07:07:38.555Z,101173.34
2023-04-16T07:10:08.357Z,101161.75
2023-04-16T07:12:38.298Z,101161.19
2023-04-16T07:15:08.269Z,101169.50
2023-04-16T07:17:36.651Z,101158.75
2023-04-16T07:20:05.477Z,101158.97
2023-04-16T07:22:33.928Z,101164.22
2023-04-16T07:25:02.303Z,101170.44
2023-04-16T07:27:30.805Z,101168.47
2023-04-16T07:30:00.620Z,101167.63
2023-04-16T07:32:29.173Z,101162.56
2023-04-16T07:34:58.195Z,101164.97
2023-04-16T07:37:26.576Z,101160.88
2023-04-16T07:39:57.599Z,101185.28
2023-04-16T07:42:27.108Z,101164.03
2023-04-16T07:44:56.154Z,101179.34
2023-04-16T07:47:26.750Z,101179.06
2023-04-16T07:49:55.219Z,101180.25
2023-04-16T07:52:23.636Z,101161.41
2023-04-16T07:54:52.980Z,101173.78
2023-04-16T07:57:21.424Z,101173.25
2023-04-16T07:59:49.895Z,101168.50
2023-04-16T08:02:18.542Z,101173.59
2023-04-16T08:04:48.477Z,101175.38
2023-04-16T08:07:17.199Z,101176.25
2023-04-16T08:09:50.472Z,101171.44
2023-04-16T08:12:19.131Z,101159.03
2023-04-16T08:14:47.461Z,101175.09
2023-04-16T08:17:16.317Z,101178.47
2023-04-16T08:19:45.030Z,101178.41
2023-04-16T08:22:15.066Z,101181.16
2023-04-16T08:24:43.617Z,101183.53
2023-04-16T08:27:18.989Z,101194.19
2023-04-16T08:29:48.565Z,101189.72
2023-04-16T08:32:17.034Z,101183.13
2023-04-16T08:34:45.597Z,101194.47
2023-04-16T08:37:15.402Z,101193.41
2023-04-16T08:39:43.802Z,101201.81
2023-04-16T08:42:15.924Z,101192.47
2023-04-16T08:44:49.500Z,101179.44
2023-04-16T08:47:18.260Z,101194.00
2023-04-16T08:49:47.091Z,101185.88
2023-04-16T08:52:21.047Z,101187.16
2023-04-16T08:54:58.502Z,101166.44
2023-04-16T08:57:36.838Z,101179.06
2023-04-16T09:00:06.173Z,101187.00
2023-04-16T09:02:35.891Z,101175.81
2023-04-16T09:05:06.362Z,101169.66
2023-04-16T09:07:36.360Z,101166.50
2023-04-16T09:10:05.096Z,101181.94
2023-04-16T09:12:33.816Z,101170.06
2023-04-16T09:15:03.533Z,101176.72
2023-04-16T09:17:32.302Z,101175.78
2023-04-16T09:20:00.880Z,101178.84
2023-04-16T09:22:29.734Z,101186.72
2023-04-16T09:24:59.552Z,101169.81
2023-04-16T09:27:28.369Z,101190.50
2023-04-16T09:29:56.718Z,101178.59
2023-04-16T09:32:28.480Z,101178.84
2023-04-16T09:34:59.008Z,101169.16
2023-04-16T09:37:29.866Z,101158.16
2023-04-16T09:40:01.136Z,101147.59
2023-04-16T09:42:31.895Z,101160.13
2023-04-16T09:45:03.325Z,101151.44
2023-04-16T09:47:44.021Z,101159.66
2023-04-16T09:50:18.108Z,101159.47
2023-04-16T09:52:50.235Z,101152.09
2023-04-16T09:55:29.131Z,101152.81
2023-04-16T09:58:01.353Z,101160.53
2023-04-16T10:00:31.775Z,101151.75
2023-04-16T10:03:07.573Z,101155.66
2023-04-16T10:05:36.707Z,101159.47
2023-04-16T10:08:13.314Z,101154.78
2023-04-16T10:10:43.829Z,101163.34
2023-04-16T10:13:12.906Z,101162.69
2023-04-16T10:15:41.992Z,101159.59
2023-04-16T10:18:11.031Z,101164.72
2023-04-16T10:20:39.666Z,101145.56
2023-04-16T10:23:08.133Z,101153.78
2023-04-16T10:25:36.750Z,101148.75
2023-04-16T10:28:06.972Z,101140.44
2023-04-16T10:30:35.850Z,101133.03
2023-04-16T10:33:06.314Z,101125.84
2023-04-16T10:35:34.845Z,101130.34
2023-04-16T10:38:22.897Z,101121.00
2023-04-16T10:40:51.514Z,101129.13
2023-04-16T10:43:21.240Z,101110.63
2023-04-16T10:45:50.034Z,101111.31
2023-04-16T10:48:20.315Z,101052.91
2023-04-16T10:50:57.185Z,101111.38
2023-04-16T10:53:27.037Z,101102.59
2023-04-16T10:55:59.525Z,101089.66
2023-04-16T10:58:33.225Z,101097.75
2023-04-16T11:01:02.279Z,101098.78
2023-04-16T11:03:33.062Z,101099.94
2023-04-16T11:06:16.752Z,101087.28
2023-04-16T11:08:54.576Z,101102.78
2023-04-16T11:11:24.738Z,101093.56
2023-04-16T11:13:58.157Z,101068.78
2023-04-16T11:16:28.415Z,101089.06
2023-04-16T11:18:57.777Z,101081.34
2023-04-16T11:21:28.791Z,101077.13
2023-04-16T11:23:59.273Z,101072.75
2023-04-16T11:26:29.301Z,101068.34
2023-04-16T11:29:00.422Z,101060.00
2023-04-16T11:31:29.013Z,101050.38
2023-04-16T11:33:58.243Z,101062.94
2023-04-16T11:36:27.935Z,101052.13
2023-04-16T11:39:04.647Z,101040.03
2023-04-16T11:41:33.077Z,101024.97
2023-04-16T11:44:18.544Z,101020.25
2023-04-16T11:46:47.112Z,101006.72
2023-04-16T11:49:15.720Z,101016.41
2023-04-16T11:51:45.678Z,101004.09
2023-04-16T11:54:20.928Z,101001.38
2023-04-16T11:56:51.168Z,100997.19
2023-04-16T11:59:23.206Z,100993.84
2023-04-16T12:01:53.628Z,100999.94
2023-04-16T12:04:25.098Z,100982.16
2023-04-16T12:07:09.962Z,100972.53
2023-04-16T12:09:40.657Z,100965.03
2023-04-16T12:12:27.665Z,100964.44
2023-04-16T12:14:59.878Z,100952.28
2023-04-16T12:17:28.275Z,100955.63
2023-04-16T12:19:58.597Z,100951.06
2023-04-16T12:22:31.832Z,100955.84
2023-04-16T12:25:01.284Z,100957.16
2023-04-16T12:27:43.334Z,100942.91
2023-04-16T12:30:14.087Z,100941.25
2023-04-16T12:32:43.340Z,100934.97
2023-04-16T12:35:12.783Z,100942.28
2023-04-16T12:37:41.653Z,100926.59
2023-04-16T12:40:11.083Z,100927.22
2023-04-16T12:42:39.553Z,100926.59
2023-04-16T12:45:08.624Z,100931.66
2023-04-16T12:47:38.537Z,100912.00
2023-04-16T12:50:08.153Z,100939.81
2023-04-16T12:52:36.962Z,100928.50
2023-04-16T12:55:05.768Z,100929.34
2023-04-16T12:57:34.183Z,100932.47
2023-04-16T13:00:02.603Z,100938.97
2023-04-16T13:02:32.291Z,100945.03
2023-04-16T13:05:02.239Z,100942.91
2023-04-16T13:07:32.368Z,100933.75
2023-04-16T13:10:01.265Z,100929.56
2023-04-16T13:12:29.634Z,100922.00
2023-04-16T13:14:57.988Z,100932.66
2023-04-16T13:17:26.664Z,100924.31
2023-04-16T13:19:55.062Z,100917.59
2023-04-16T13:22:25.227Z,100926.56
2023-04-16T13:24:53.565Z,100948.75
2023-04-16T13:27:21.935Z,100930.16
2023-04-16T13:29:50.412Z,100935.81
2023-04-16T13:32:21.022Z,100927.03
2023-04-16T13:34:49.568Z,100918.66
2023-04-16T13:37:17.854Z,100910.25
2023-04-16T13:39:47.611Z,100924.88
2023-04-16T13:42:16.020Z,100911.53
2023-04-16T13:44:44.401Z,100907.13
2023-04-16T13:47:12.886Z,100901.03
2023-04-16T13:49:41.251Z,100895.59
2023-04-16T13:52:09.648Z,100892.63
2023-04-16T13:54:38.161Z,100893.25
2023-04-16T13:57:08.188Z,100875.41
2023-04-16T13:59:36.617Z,100893.06
2023-04-16T14:02:05.293Z,100889.28
2023-04-16T14:04:33.775Z,100882.41
2023-04-16T14:07:02.311Z,100881.97
2023-04-16T14:09:30.860Z,100876.09
2023-04-16T14:11:59.337Z,100884.25
2023-04-16T14:14:29.106Z,100880.69
2023-04-16T14:16:57.480Z,100886.56
2023-04-16T14:19:26.015Z,100874.00
2023-04-16T14:21:54.498Z,100879.44
2023-04-16T14:24:22.927Z,100885.91
2023-04-16T14:26:51.366Z,100876.47
2023-04-16T14:29:19.801Z,100873.38
2023-04-16T14:31:50.508Z,100880.03
2023-04-16T14:34:19.045Z,100882.94
2023-04-16T14:36:49.266Z,100885.25
2023-04-16T14:39:17.743Z,100873.94
2023-04-16T14:41:47.076Z,100872.69
2023-04-16T14:44:16.309Z,100830.72
2023-04-16T14:46:44.853Z,100881.75
2023-04-16T14:49:15.320Z,100885.31
2023-04-16T14:51:46.075Z,100887.00
2023-04-16T14:54:14.461Z,100896.88
2023-04-16T14:56:43.001Z,100877.25
2023-04-16T14:59:11.640Z,100888.09
2023-04-16T15:01:41.399Z,100890.00
2023-04-16T15:04:10.248Z,100886.25
2023-04-16T15:06:40.215Z,100888.13
2023-04-16T15:09:09.706Z,100871.00
2023-04-16T15:11:38.548Z,100867.03
2023-04-16T15:14:07.038Z,100864.75
2023-04-16T15:16:35.770Z,100874.75
2023-04-16T15:19:05.145Z,100859.28
2023-04-16T15:21:33.728Z,100853.03
2023-04-16T15:24:03.634Z,100862.22
2023-04-16T15:26:32.281Z,100847.78
2023-04-16T15:29:00.724Z,100854.06
2023-04-16T15:31:30.464Z,100871.59
2023-04-16T15:33:59.790Z,100862.84
2023-04-16T15:36:28.197Z,100864.72
2023-04-16T15:38:56.574Z,100874.34
2023-04-16T15:41:26.461Z,100873.72
2023-04-16T15:43:54.832Z,100887.28
2023-04-16T15:46:23.271Z,100875.38
2023-04-16T15:48:51.665Z,100870.13
2023-04-16T15:51:20.085Z,100875.34
2023-04-16T15:53:50.006Z,100878.06
2023-04-16T15:56:18.422Z,100880.56
2023-04-16T15:58:48.561Z,100886.97
2023-04-16T16:01:17.173Z,100892.66
2023-04-16T16:03:45.813Z,100900.09
2023-04-16T16:06:14.403Z,100898.03
2023-04-16T16:08:43.751Z,100886.97
2023-04-16T16:11:12.381Z,100897.00
2023-04-16T16:13:41.848Z,100895.09
2023-04-16T16:16:11.855Z,100891.53
2023-04-16T16:18:40.799Z,100901.97
2023-04-16T16:21:09.256Z,100904.00
2023-04-16T16:23:37.676Z,100893.50
2023-04-16T16:26:06.534Z,100905.66
2023-04-16T16:28:37.679Z,100900.63
2023-04-16T16:31:07.311Z,100907.50
2023-04-16T16:33:39.000Z,100908.06
2023-04-16T16:36:11.926Z,100916.41
2023-04-16T16:38:41.384Z,100923.66
2023-04-16T16:41:09.940Z,100920.56
2023-04-16T16:43:38.323Z,100926.75
2023-04-16T16:46:07.681Z,100926.44
2023-04-16T16:48:37.585Z,100922.84
2023-04-16T16:51:10.163Z,100940.03
2023-04-16T16:53:39.591Z,100940.34
2023-04-16T16:56:07.999Z,100941.91
2023-04-16T16:58:36.433Z,100928.41
2023-04-16T17:01:04.879Z,100936.63
2023-04-16T17:03:33.506Z,100935.56
2023-04-16T17:06:03.680Z,100938.81
2023-04-16T17:08:33.225Z,100945.84
2023-04-16T17:11:04.582Z,100934.53
2023-04-16T17:13:33.759Z,100942.00
2023-04-16T17:16:02.284Z,100935.13
2023-04-16T17:18:30.854Z,100940.06
2023-04-16T17:20:59.314Z,100962.13
2023-04-16T17:23:29.176Z,100970.63
2023-04-16T17:25:57.585Z,100962.13
2023-04-16T17:28:26.396Z,100964.94
2023-04-16T17:30:56.360Z,100963.47
2023-04-16T17:33:24.896Z,100966.53
2023-04-16T17:35:53.313Z,100985.19
2023-04-16T17:38:21.705Z,100976.78
2023-04-16T17:40:51.556Z,100982.66
2023-04-16T17:43:19.912Z,100969.88
2023-04-16T17:45:48.301Z,100987.84
2023-04-16T17:48:16.695Z,100981.31
2023-04-16T17:50:45.105Z,100980.34
2023-04-16T17:53:13.627Z,100976.56
2023-04-16T17:55:42.863Z,100996.84
2023-04-16T17:58:12.608Z,100996.19
2023-04-16T18:00:41.099Z,101004.34
2023-04-16T18:03:10.036Z,101007.78
2023-04-16T18:05:38.497Z,101010.19
2023-04-16T18:08:07.221Z,101004.78
2023-04-16T18:10:35.642Z,100991.38
2023-04-16T18:13:04.008Z,101007.75
2023-04-16T18:15:37.309Z,101013.88
2023-04-16T18:18:06.126Z,101006.00
2023-04-16T18:20:34.800Z,101017.53
2023-04-16T18:23:03.262Z,101012.50
2023-04-16T18:25:35.072Z,101004.09
2023-04-16T18:28:05.266Z,101001.91
2023-04-16T18:30:36.168Z,101007.69
2023-04-16T18:35:35.892Z,100997.00
2023-04-16T18:38:04.278Z,101001.50
2023-04-16T18:40:35.488Z,101005.06
2023-04-16T18:43:04.139Z,100999.03
2023-04-16T18:45:34.230Z,101006.00
2023-04-16T18:48:04.400Z,101022.53
2023-04-16T18:50:32.809Z,101025.09
2023-04-16T18:53:01.250Z,101023.44
2023-04-16T18:55:30.247Z,101034.38
2023-04-16T18:57:58.674Z,101031.56
2023-04-16T19:00:27.114Z,101038.66
2023-04-16T19:02:55.580Z,101037.81
2023-04-16T19:05:25.431Z,101035.63
2023-04-16T19:07:54.489Z,101039.16
2023-04-16T19:10:22.885Z,101039.84
2023-04-16T19:12:51.361Z,101035.50
2023-04-16T19:15:19.869Z,101044.41
2023-04-16T19:17:48.245Z,101046.09
2023-04-16T19:20:16.701Z,101053.69
2023-04-16T19:22:46.553Z,101048.63
2023-04-16T19:25:15.037Z,101062.63
2023-04-16T19:27:43.436Z,101060.94
2023-04-16T19:30:12.411Z,101074.06
2023-04-16T19:32:40.858Z,101069.84
2023-04-16T19:35:09.777Z,101072.22
2023-04-16T19:37:38.119Z,101081.63
2023-04-16T19:40:10.045Z,101074.22
2023-04-16T19:42:38.486Z,101089.38
2023-04-16T19:45:08.124Z,101079.94
2023-04-16T19:47:36.777Z,101088.34
2023-04-16T19:50:05.339Z,101081.44
2023-04-16T19:52:38.745Z,101091.03
2023-04-16T19:55:09.880Z,101088.66
2023-04-16T19:57:38.287Z,101098.09
2023-04-16T20:00:09.284Z,101103.81
2023-04-16T20:02:37.704Z,101107.19
2023-04-16T20:05:06.756Z,101108.84
2023-04-16T20:07:35.349Z,101107.16
2023-04-16T20:10:04.007Z,101108.47
2023-04-16T20:12:34.787Z,101103.94
2023-04-16T20:15:04.585Z,101102.72
2023-04-16T20:17:32.963Z,101105.25
2023-04-16T20:20:02.921Z,101098.69
2023-04-16T20:22:32.251Z,101103.38
2023-04-16T20:25:00.665Z,101097.16
2023-04-16T20:27:29.032Z,101105.59
2023-04-16T20:29:58.908Z,101106.72
2023-04-16T20:32:28.030Z,101113.59
2023-04-16T20:34:56.708Z,101102.28
2023-04-16T20:37:25.152Z,101097.91
2023-04-16T20:39:54.300Z,101097.72
2023-04-16T20:42:23.233Z,101099.72
2023-04-16T20:44:55.886Z,101088.44
2023-04-16T20:47:25.708Z,101098.88
2023-04-16T20:49:55.001Z,101094.66
2023-04-16T20:52:23.321Z,101094.28
2023-04-16T20:54:52.510Z,101092.22
2023-04-16T20:57:20.990Z,101099.75
2023-04-16T20:59:50.570Z,101090.00
2023-04-16T21:02:20.432Z,101087.81
2023-04-16T21:04:50.549Z,101092.69
2023-04-16T21:07:18.972Z,101097.53
2023-04-16T21:09:47.322Z,101092.63
2023-04-16T21:12:15.770Z,101092.63
2023-04-16T21:14:44.190Z,101106.38
2023-04-16T21:17:12.483Z,101094.25
2023-04-16T21:19:41.468Z,101092.56
2023-04-16T21:22:11.564Z,101093.72
2023-04-16T21:24:40.947Z,101095.72
2023-04-16T21:27:09.799Z,101107.31
2023-04-16T21:29:38.102Z,101109.00
2023-04-16T21:32:07.155Z,101103.09
2023-04-16T21:34:35.534Z,101095.53
2023-04-16T21:37:03.901Z,101100.69
2023-04-16T21:39:33.787Z,101066.59
2023-04-16T21:42:02.367Z,101101.75
2023-04-16T21:44:30.818Z,101096.00
2023-04-16T21:46:59.242Z,101089.28
2023-04-16T21:49:27.785Z,101096.97
2023-04-16T21:51:59.333Z,101083.13
2023-04-16T21:54:27.886Z,101083.59
2023-04-16T21:56:58.110Z,101081.34
2023-04-16T21:59:26.493Z,101074.94
2023-04-16T22:01:55.034Z,101083.59
2023-04-16T22:04:37.125Z,101075.16
2023-04-16T22:07:05.988Z,101077.63
2023-04-16T22:09:34.278Z,101081.06
2023-04-16T22:12:04.249Z,101077.72
2023-04-16T22:14:32.666Z,101082.38
2023-04-16T22:17:01.998Z,101079.00
2023-04-16T22:19:30.680Z,101080.16
2023-04-16T22:21:59.163Z,101085.81
2023-04-16T22:24:28.379Z,101092.03
2023-04-16T22:26:57.096Z,101078.38
2023-04-16T22:29:26.828Z,101084.19
2023-04-16T22:31:55.349Z,101086.66
2023-04-16T22:34:23.785Z,101079.91
2023-04-16T22:36:52.319Z,101090.78
2023-04-16T22:39:21.112Z,101100.66
2023-04-16T22:41:49.462Z,101102.50
2023-04-16T22:44:17.879Z,101112.78
2023-04-16T22:46:47.868Z,101110.94
2023-04-16T22:49:16.358Z,101110.53
2023-04-16T22:51:44.902Z,101109.56
2023-04-16T22:54:14.046Z,101117.78
2023-04-16T22:56:42.866Z,101101.78
2023-04-16T22:59:11.457Z,101113.91
2023-04-16T23:01:42.309Z,101115.06
2023-04-16T23:04:12.233Z,101106.75
2023-04-16T23:06:40.726Z,101114.09
2023-04-16T23:09:09.575Z,101117.38
2023-04-16T23:11:38.112Z,101122.03
2023-04-16T23:14:06.613Z,101120.06
2023-04-16T23:16:35.061Z,101117.69
2023-04-16T23:19:03.512Z,101121.78
2023-04-16T23:21:33.391Z,101113.94
2023-04-16T23:24:01.777Z,101124.22
2023-04-16T23:26:30.252Z,101131.56
2023-04-16T23:28:58.570Z,101120.56
2023-04-16T23:31:27.142Z,101110.84
2023-04-16T23:33:55.569Z,101114.41
2023-04-16T23:36:24.059Z,101107.91
2023-04-16T23:38:54.021Z,101105.38
2023-04-16T23:41:23.368Z,101105.81
2023-04-16T23:43:51.730Z,101103.25
2023-04-16T23:46:20.162Z,101100.31
2023-04-16T23:48:48.744Z,101097.34
2023-04-16T23:51:17.167Z,101091.16
2023-04-16T23:53:45.510Z,101097.63
2023-04-16T23:56:15.597Z,101092.00
2023-04-16T23:58:43.988Z,101082.69
